sensor_id;sensor_type;location;lat;lon;timestamp;P1;durP1;ratioP1;P2;durP2;ratioP2
22622;SDS011;11478;51.094;7.030;2024-02-28T00:01:26;56.65;;;28.75;;
22622;SDS011;11478;51.094;7.030;2024-02-28T00:03:52;53.47;;;28.98;;
22622;SDS011;11478;51.094;7.030;2024-02-28T00:09:12;58.10;;;29.83;;
22622;SDS011;11478;51.094;7.030;2024-02-28T00:11:45;61.33;;;30.75;;
22622;SDS011;11478;51.094;7.030;2024-02-28T00:14:12;75.63;;;30.37;;
22622;SDS011;11478;51.094;7.030;2024-02-28T00:16:43;75.32;;;32.30;;
22622;SDS011;11478;51.094;7.030;2024-02-28T00:19:09;62.15;;;31.45;;
22622;SDS011;11478;51.094;7.030;2024-02-28T00:21:38;63.53;;;32.03;;
22622;SDS011;11478;51.094;7.030;2024-02-28T00:24:12;69.70;;;31.95;;
22622;SDS011;11478;51.094;7.030;2024-02-28T00:26:42;70.40;;;33.85;;
22622;SDS011;11478;51.094;7.030;2024-02-28T00:29:20;79.30;;;35.10;;
22622;SDS011;11478;51.094;7.030;2024-02-28T00:31:49;74.68;;;34.78;;
22622;SDS011;11478;51.094;7.030;2024-02-28T00:34:23;77.22;;;34.60;;
22622;SDS011;11478;51.094;7.030;2024-02-28T00:36:49;79.10;;;34.63;;
22622;SDS011;11478;51.094;7.030;2024-02-28T00:39:20;86.10;;;35.40;;
22622;SDS011;11478;51.094;7.030;2024-02-28T00:41:46;85.28;;;36.08;;
22622;SDS011;11478;51.094;7.030;2024-02-28T00:44:13;80.15;;;36.03;;
22622;SDS011;11478;51.094;7.030;2024-02-28T00:46:49;88.38;;;33.88;;
22622;SDS011;11478;51.094;7.030;2024-02-28T00:49:15;92.05;;;37.03;;
22622;SDS011;11478;51.094;7.030;2024-02-28T00:51:43;194.82;;;41.33;;
22622;SDS011;11478;51.094;7.030;2024-02-28T00:54:09;120.57;;;40.95;;
22622;SDS011;11478;51.094;7.030;2024-02-28T00:56:35;118.85;;;40.97;;
22622;SDS011;11478;51.094;7.030;2024-02-28T00:59:01;130.77;;;41.05;;
22622;SDS011;11478;51.094;7.030;2024-02-28T01:04:01;121.03;;;40.03;;
22622;SDS011;11478;51.094;7.030;2024-02-28T01:06:26;128.95;;;40.53;;
22622;SDS011;11478;51.094;7.030;2024-02-28T01:08:55;130.35;;;42.60;;
22622;SDS011;11478;51.094;7.030;2024-02-28T01:11:20;129.40;;;42.35;;
22622;SDS011;11478;51.094;7.030;2024-02-28T01:13:46;122.85;;;40.83;;
22622;SDS011;11478;51.094;7.030;2024-02-28T01:16:12;120.22;;;40.67;;
22622;SDS011;11478;51.094;7.030;2024-02-28T01:18:38;107.80;;;40.25;;
22622;SDS011;11478;51.094;7.030;2024-02-28T01:21:04;131.65;;;41.17;;
22622;SDS011;11478;51.094;7.030;2024-02-28T01:23:33;113.90;;;39.47;;
22622;SDS011;11478;51.094;7.030;2024-02-28T01:26:00;130.63;;;42.13;;
22622;SDS011;11478;51.094;7.030;2024-02-28T01:28:29;119.25;;;39.15;;
22622;SDS011;11478;51.094;7.030;2024-02-28T01:30:55;127.78;;;43.55;;
22622;SDS011;11478;51.094;7.030;2024-02-28T01:33:21;130.98;;;42.33;;
22622;SDS011;11478;51.094;7.030;2024-02-28T01:35:47;140.15;;;43.30;;
22622;SDS011;11478;51.094;7.030;2024-02-28T01:38:14;141.40;;;44.00;;
22622;SDS011;11478;51.094;7.030;2024-02-28T01:40:44;157.38;;;46.65;;
22622;SDS011;11478;51.094;7.030;2024-02-28T01:43:11;141.93;;;45.15;;
22622;SDS011;11478;51.094;7.030;2024-02-28T01:45:37;150.05;;;46.25;;
22622;SDS011;11478;51.094;7.030;2024-02-28T01:48:04;152.77;;;44.25;;
22622;SDS011;11478;51.094;7.030;2024-02-28T01:50:35;161.73;;;48.70;;
22622;SDS011;11478;51.094;7.030;2024-02-28T01:53:02;154.30;;;47.53;;
22622;SDS011;11478;51.094;7.030;2024-02-28T01:57:58;143.43;;;46.63;;
22622;SDS011;11478;51.094;7.030;2024-02-28T02:00:24;153.43;;;47.25;;
22622;SDS011;11478;51.094;7.030;2024-02-28T02:02:52;155.40;;;49.55;;
22622;SDS011;11478;51.094;7.030;2024-02-28T02:05:18;149.20;;;47.08;;
22622;SDS011;11478;51.094;7.030;2024-02-28T02:07:47;160.15;;;49.60;;
22622;SDS011;11478;51.094;7.030;2024-02-28T02:10:14;141.23;;;47.63;;
22622;SDS011;11478;51.094;7.030;2024-02-28T02:12:40;162.20;;;46.08;;
22622;SDS011;11478;51.094;7.030;2024-02-28T02:15:06;161.50;;;47.13;;
22622;SDS011;11478;51.094;7.030;2024-02-28T02:17:32;154.60;;;47.58;;
22622;SDS011;11478;51.094;7.030;2024-02-28T02:20:04;145.18;;;46.30;;
22622;SDS011;11478;51.094;7.030;2024-02-28T02:22:35;150.18;;;47.85;;
22622;SDS011;11478;51.094;7.030;2024-02-28T02:25:04;153.80;;;47.22;;
22622;SDS011;11478;51.094;7.030;2024-02-28T02:27:31;144.48;;;46.97;;
22622;SDS011;11478;51.094;7.030;2024-02-28T02:29:57;158.00;;;47.45;;
22622;SDS011;11478;51.094;7.030;2024-02-28T02:32:22;149.95;;;48.35;;
22622;SDS011;11478;51.094;7.030;2024-02-28T02:34:49;136.00;;;45.33;;
22622;SDS011;11478;51.094;7.030;2024-02-28T02:37:15;152.43;;;46.80;;
22622;SDS011;11478;51.094;7.030;2024-02-28T02:39:41;149.40;;;45.53;;
22622;SDS011;11478;51.094;7.030;2024-02-28T02:42:06;145.45;;;45.78;;
22622;SDS011;11478;51.094;7.030;2024-02-28T02:44:33;150.10;;;46.55;;
22622;SDS011;11478;51.094;7.030;2024-02-28T02:46:59;134.65;;;44.17;;
22622;SDS011;11478;51.094;7.030;2024-02-28T02:49:27;138.15;;;44.35;;
22622;SDS011;11478;51.094;7.030;2024-02-28T02:51:53;139.65;;;45.90;;
22622;SDS011;11478;51.094;7.030;2024-02-28T02:54:19;142.30;;;46.35;;
22622;SDS011;11478;51.094;7.030;2024-02-28T02:56:50;136.00;;;45.95;;
22622;SDS011;11478;51.094;7.030;2024-02-28T02:59:16;142.82;;;45.78;;
22622;SDS011;11478;51.094;7.030;2024-02-28T03:01:49;131.32;;;45.75;;
22622;SDS011;11478;51.094;7.030;2024-02-28T03:04:15;143.63;;;47.55;;
22622;SDS011;11478;51.094;7.030;2024-02-28T03:06:41;124.72;;;43.15;;
22622;SDS011;11478;51.094;7.030;2024-02-28T03:09:07;134.32;;;45.60;;
22622;SDS011;11478;51.094;7.030;2024-02-28T03:11:37;123.20;;;43.70;;
22622;SDS011;11478;51.094;7.030;2024-02-28T03:14:03;130.80;;;44.70;;
22622;SDS011;11478;51.094;7.030;2024-02-28T03:16:31;144.60;;;46.88;;
22622;SDS011;11478;51.094;7.030;2024-02-28T03:18:57;125.00;;;42.97;;
22622;SDS011;11478;51.094;7.030;2024-02-28T03:21:23;125.78;;;43.45;;
22622;SDS011;11478;51.094;7.030;2024-02-28T03:23:49;128.25;;;44.10;;
22622;SDS011;11478;51.094;7.030;2024-02-28T03:26:15;135.00;;;46.38;;
22622;SDS011;11478;51.094;7.030;2024-02-28T03:28:45;124.20;;;44.30;;
22622;SDS011;11478;51.094;7.030;2024-02-28T03:31:10;130.80;;;45.00;;
22622;SDS011;11478;51.094;7.030;2024-02-28T03:33:37;127.53;;;43.60;;
22622;SDS011;11478;51.094;7.030;2024-02-28T03:36:03;122.05;;;44.58;;
22622;SDS011;11478;51.094;7.030;2024-02-28T03:38:29;135.02;;;44.83;;
22622;SDS011;11478;51.094;7.030;2024-02-28T03:40:55;122.38;;;42.70;;
22622;SDS011;11478;51.094;7.030;2024-02-28T03:43:22;140.93;;;46.90;;
22622;SDS011;11478;51.094;7.030;2024-02-28T03:45:48;136.48;;;46.25;;
22622;SDS011;11478;51.094;7.030;2024-02-28T03:48:15;125.90;;;43.97;;
22622;SDS011;11478;51.094;7.030;2024-02-28T03:50:41;128.98;;;45.72;;
22622;SDS011;11478;51.094;7.030;2024-02-28T03:53:07;132.85;;;43.28;;
22622;SDS011;11478;51.094;7.030;2024-02-28T03:55:34;138.52;;;46.70;;
22622;SDS011;11478;51.094;7.030;2024-02-28T03:58:00;132.35;;;44.75;;
22622;SDS011;11478;51.094;7.030;2024-02-28T04:00:35;128.05;;;44.35;;
22622;SDS011;11478;51.094;7.030;2024-02-28T04:03:02;115.55;;;43.55;;
22622;SDS011;11478;51.094;7.030;2024-02-28T04:05:29;119.00;;;42.80;;
22622;SDS011;11478;51.094;7.030;2024-02-28T04:07:56;113.95;;;42.00;;
22622;SDS011;11478;51.094;7.030;2024-02-28T04:10:22;121.10;;;43.05;;
22622;SDS011;11478;51.094;7.030;2024-02-28T04:12:51;123.25;;;44.50;;
22622;SDS011;11478;51.094;7.030;2024-02-28T04:15:17;115.97;;;43.15;;
22622;SDS011;11478;51.094;7.030;2024-02-28T04:17:45;125.95;;;44.55;;
22622;SDS011;11478;51.094;7.030;2024-02-28T04:20:11;125.28;;;42.95;;
22622;SDS011;11478;51.094;7.030;2024-02-28T04:22:46;123.63;;;45.00;;
22622;SDS011;11478;51.094;7.030;2024-02-28T04:25:11;133.35;;;46.95;;
22622;SDS011;11478;51.094;7.030;2024-02-28T04:27:40;134.25;;;46.13;;
22622;SDS011;11478;51.094;7.030;2024-02-28T04:30:06;122.32;;;44.65;;
22622;SDS011;11478;51.094;7.030;2024-02-28T04:32:32;141.15;;;47.45;;
22622;SDS011;11478;51.094;7.030;2024-02-28T04:34:58;144.88;;;46.30;;
22622;SDS011;11478;51.094;7.030;2024-02-28T04:37:32;138.45;;;44.78;;
22622;SDS011;11478;51.094;7.030;2024-02-28T04:39:59;133.02;;;44.80;;
22622;SDS011;11478;51.094;7.030;2024-02-28T04:42:26;146.43;;;48.05;;
22622;SDS011;11478;51.094;7.030;2024-02-28T04:44:52;154.40;;;51.47;;
22622;SDS011;11478;51.094;7.030;2024-02-28T04:47:18;165.40;;;51.75;;
22622;SDS011;11478;51.094;7.030;2024-02-28T04:49:50;148.75;;;49.88;;
22622;SDS011;11478;51.094;7.030;2024-02-28T04:52:19;155.70;;;52.30;;
22622;SDS011;11478;51.094;7.030;2024-02-28T04:54:46;154.60;;;50.90;;
22622;SDS011;11478;51.094;7.030;2024-02-28T04:57:12;158.45;;;53.70;;
22622;SDS011;11478;51.094;7.030;2024-02-28T04:59:41;155.80;;;52.70;;
22622;SDS011;11478;51.094;7.030;2024-02-28T05:02:08;173.00;;;56.80;;
22622;SDS011;11478;51.094;7.030;2024-02-28T05:04:35;162.73;;;52.45;;
22622;SDS011;11478;51.094;7.030;2024-02-28T05:07:01;165.38;;;53.22;;
22622;SDS011;11478;51.094;7.030;2024-02-28T05:09:29;158.75;;;52.95;;
22622;SDS011;11478;51.094;7.030;2024-02-28T05:11:55;171.98;;;56.17;;
22622;SDS011;11478;51.094;7.030;2024-02-28T05:14:21;182.98;;;57.85;;
22622;SDS011;11478;51.094;7.030;2024-02-28T05:16:47;183.73;;;56.85;;
22622;SDS011;11478;51.094;7.030;2024-02-28T05:19:22;183.00;;;57.45;;
22622;SDS011;11478;51.094;7.030;2024-02-28T05:21:48;195.55;;;60.20;;
22622;SDS011;11478;51.094;7.030;2024-02-28T05:24:20;188.98;;;59.78;;
22622;SDS011;11478;51.094;7.030;2024-02-28T05:26:46;208.88;;;62.20;;
22622;SDS011;11478;51.094;7.030;2024-02-28T05:29:13;217.63;;;64.30;;
22622;SDS011;11478;51.094;7.030;2024-02-28T05:31:39;202.88;;;62.40;;
22622;SDS011;11478;51.094;7.030;2024-02-28T05:34:05;203.15;;;63.70;;
22622;SDS011;11478;51.094;7.030;2024-02-28T05:36:34;226.55;;;65.45;;
22622;SDS011;11478;51.094;7.030;2024-02-28T05:39:03;229.48;;;68.22;;
22622;SDS011;11478;51.094;7.030;2024-02-28T05:41:30;227.73;;;70.32;;
22622;SDS011;11478;51.094;7.030;2024-02-28T05:43:57;236.73;;;70.97;;
22622;SDS011;11478;51.094;7.030;2024-02-28T05:46:22;234.25;;;67.72;;
22622;SDS011;11478;51.094;7.030;2024-02-28T05:48:48;246.15;;;70.93;;
22622;SDS011;11478;51.094;7.030;2024-02-28T05:51:19;229.75;;;69.78;;
22622;SDS011;11478;51.094;7.030;2024-02-28T05:53:45;231.77;;;70.95;;
22622;SDS011;11478;51.094;7.030;2024-02-28T05:56:11;229.70;;;71.15;;
22622;SDS011;11478;51.094;7.030;2024-02-28T05:58:42;222.55;;;69.40;;
22622;SDS011;11478;51.094;7.030;2024-02-28T06:01:09;213.07;;;64.32;;
22622;SDS011;11478;51.094;7.030;2024-02-28T06:03:40;212.45;;;65.68;;
22622;SDS011;11478;51.094;7.030;2024-02-28T06:06:10;215.43;;;66.13;;
22622;SDS011;11478;51.094;7.030;2024-02-28T06:08:38;198.93;;;64.35;;
22622;SDS011;11478;51.094;7.030;2024-02-28T06:11:04;204.18;;;64.68;;
22622;SDS011;11478;51.094;7.030;2024-02-28T06:13:33;201.57;;;62.75;;
22622;SDS011;11478;51.094;7.030;2024-02-28T06:15:59;207.15;;;62.92;;
22622;SDS011;11478;51.094;7.030;2024-02-28T06:18:26;187.82;;;60.88;;
22622;SDS011;11478;51.094;7.030;2024-02-28T06:20:52;211.13;;;65.47;;
22622;SDS011;11478;51.094;7.030;2024-02-28T06:23:21;186.00;;;63.22;;
22622;SDS011;11478;51.094;7.030;2024-02-28T06:25:50;203.13;;;67.30;;
22622;SDS011;11478;51.094;7.030;2024-02-28T06:28:23;193.10;;;63.72;;
22622;SDS011;11478;51.094;7.030;2024-02-28T06:30:49;201.73;;;65.78;;
22622;SDS011;11478;51.094;7.030;2024-02-28T06:33:29;202.18;;;63.88;;
22622;SDS011;11478;51.094;7.030;2024-02-28T06:35:55;192.45;;;62.85;;
22622;SDS011;11478;51.094;7.030;2024-02-28T06:38:26;187.68;;;62.90;;
22622;SDS011;11478;51.094;7.030;2024-02-28T06:40:51;204.30;;;63.80;;
22622;SDS011;11478;51.094;7.030;2024-02-28T06:43:20;195.32;;;63.53;;
22622;SDS011;11478;51.094;7.030;2024-02-28T06:45:46;193.05;;;64.28;;
22622;SDS011;11478;51.094;7.030;2024-02-28T06:48:17;184.13;;;64.07;;
22622;SDS011;11478;51.094;7.030;2024-02-28T06:50:43;184.30;;;65.03;;
22622;SDS011;11478;51.094;7.030;2024-02-28T06:53:12;178.02;;;65.32;;
22622;SDS011;11478;51.094;7.030;2024-02-28T06:55:40;172.73;;;64.60;;
22622;SDS011;11478;51.094;7.030;2024-02-28T06:58:06;175.35;;;65.38;;
22622;SDS011;11478;51.094;7.030;2024-02-28T07:03:03;171.50;;;64.78;;
22622;SDS011;11478;51.094;7.030;2024-02-28T07:05:29;164.20;;;62.55;;
22622;SDS011;11478;51.094;7.030;2024-02-28T07:07:56;158.13;;;61.28;;
22622;SDS011;11478;51.094;7.030;2024-02-28T07:10:22;160.02;;;63.42;;
22622;SDS011;11478;51.094;7.030;2024-02-28T07:13:07;150.32;;;59.33;;
22622;SDS011;11478;51.094;7.030;2024-02-28T07:18:16;162.23;;;61.38;;
22622;SDS011;11478;51.094;7.030;2024-02-28T07:20:42;148.25;;;58.35;;
22622;SDS011;11478;51.094;7.030;2024-02-28T07:23:11;153.30;;;58.17;;
22622;SDS011;11478;51.094;7.030;2024-02-28T07:25:37;156.90;;;61.08;;
22622;SDS011;11478;51.094;7.030;2024-02-28T07:28:03;155.60;;;62.30;;
22622;SDS011;11478;51.094;7.030;2024-02-28T07:30:32;162.57;;;66.78;;
22622;SDS011;11478;51.094;7.030;2024-02-28T07:32:58;161.52;;;64.00;;
22622;SDS011;11478;51.094;7.030;2024-02-28T07:35:25;153.93;;;60.60;;
22622;SDS011;11478;51.094;7.030;2024-02-28T07:37:51;145.52;;;58.65;;
22622;SDS011;11478;51.094;7.030;2024-02-28T07:40:17;154.23;;;60.58;;
22622;SDS011;11478;51.094;7.030;2024-02-28T07:42:43;159.65;;;60.97;;
22622;SDS011;11478;51.094;7.030;2024-02-28T07:47:55;156.80;;;61.95;;
22622;SDS011;11478;51.094;7.030;2024-02-28T07:50:24;148.43;;;61.67;;
22622;SDS011;11478;51.094;7.030;2024-02-28T07:52:53;153.32;;;61.95;;
22622;SDS011;11478;51.094;7.030;2024-02-28T07:55:20;147.60;;;59.30;;
22622;SDS011;11478;51.094;7.030;2024-02-28T07:57:50;144.25;;;58.03;;
22622;SDS011;11478;51.094;7.030;2024-02-28T08:00:21;136.43;;;55.22;;
22622;SDS011;11478;51.094;7.030;2024-02-28T08:02:47;139.98;;;56.42;;
22622;SDS011;11478;51.094;7.030;2024-02-28T08:05:13;140.70;;;57.05;;
22622;SDS011;11478;51.094;7.030;2024-02-28T08:07:40;131.55;;;55.88;;
22622;SDS011;11478;51.094;7.030;2024-02-28T08:10:07;139.43;;;55.95;;
22622;SDS011;11478;51.094;7.030;2024-02-28T08:12:36;136.93;;;56.83;;
22622;SDS011;11478;51.094;7.030;2024-02-28T08:15:02;127.50;;;53.83;;
22622;SDS011;11478;51.094;7.030;2024-02-28T08:17:40;130.80;;;55.20;;
22622;SDS011;11478;51.094;7.030;2024-02-28T08:20:07;132.23;;;56.33;;
22622;SDS011;11478;51.094;7.030;2024-02-28T08:22:37;134.15;;;55.72;;
22622;SDS011;11478;51.094;7.030;2024-02-28T08:25:03;127.45;;;54.83;;
22622;SDS011;11478;51.094;7.030;2024-02-28T08:27:32;120.80;;;52.88;;
22622;SDS011;11478;51.094;7.030;2024-02-28T08:30:05;129.07;;;54.30;;
22622;SDS011;11478;51.094;7.030;2024-02-28T08:32:32;132.63;;;56.42;;
22622;SDS011;11478;51.094;7.030;2024-02-28T08:34:59;128.80;;;54.25;;
22622;SDS011;11478;51.094;7.030;2024-02-28T08:37:25;124.70;;;54.70;;
22622;SDS011;11478;51.094;7.030;2024-02-28T08:39:53;127.43;;;54.85;;
22622;SDS011;11478;51.094;7.030;2024-02-28T08:42:23;133.73;;;57.50;;
22622;SDS011;11478;51.094;7.030;2024-02-28T08:44:55;134.20;;;58.72;;
22622;SDS011;11478;51.094;7.030;2024-02-28T08:47:24;123.50;;;55.42;;
22622;SDS011;11478;51.094;7.030;2024-02-28T08:49:51;123.97;;;54.55;;
22622;SDS011;11478;51.094;7.030;2024-02-28T08:52:19;117.43;;;51.67;;
22622;SDS011;11478;51.094;7.030;2024-02-28T08:54:46;124.38;;;54.28;;
22622;SDS011;11478;51.094;7.030;2024-02-28T08:57:13;137.63;;;60.13;;
22622;SDS011;11478;51.094;7.030;2024-02-28T08:59:39;127.40;;;55.40;;
22622;SDS011;11478;51.094;7.030;2024-02-28T09:02:11;123.30;;;54.35;;
22622;SDS011;11478;51.094;7.030;2024-02-28T09:04:37;133.82;;;55.53;;
22622;SDS011;11478;51.094;7.030;2024-02-28T09:07:03;144.93;;;62.75;;
22622;SDS011;11478;51.094;7.030;2024-02-28T09:09:33;158.20;;;68.20;;
22622;SDS011;11478;51.094;7.030;2024-02-28T09:12:03;139.65;;;60.50;;
22622;SDS011;11478;51.094;7.030;2024-02-28T09:14:29;131.13;;;59.08;;
22622;SDS011;11478;51.094;7.030;2024-02-28T09:16:54;135.63;;;56.28;;
22622;SDS011;11478;51.094;7.030;2024-02-28T09:19:28;125.53;;;57.20;;
22622;SDS011;11478;51.094;7.030;2024-02-28T09:21:56;122.47;;;53.90;;
22622;SDS011;11478;51.094;7.030;2024-02-28T09:24:23;139.55;;;59.38;;
22622;SDS011;11478;51.094;7.030;2024-02-28T09:26:49;120.60;;;54.17;;
22622;SDS011;11478;51.094;7.030;2024-02-28T09:29:15;121.63;;;55.80;;
22622;SDS011;11478;51.094;7.030;2024-02-28T09:34:11;133.35;;;58.83;;
22622;SDS011;11478;51.094;7.030;2024-02-28T09:36:43;122.35;;;55.45;;
22622;SDS011;11478;51.094;7.030;2024-02-28T09:39:12;121.93;;;55.35;;
22622;SDS011;11478;51.094;7.030;2024-02-28T09:41:43;119.40;;;54.80;;
22622;SDS011;11478;51.094;7.030;2024-02-28T09:44:11;130.98;;;57.17;;
22622;SDS011;11478;51.094;7.030;2024-02-28T09:46:45;120.63;;;53.85;;
22622;SDS011;11478;51.094;7.030;2024-02-28T09:49:18;116.85;;;52.63;;
22622;SDS011;11478;51.094;7.030;2024-02-28T09:51:44;120.22;;;54.88;;
22622;SDS011;11478;51.094;7.030;2024-02-28T09:56:47;122.28;;;54.72;;
22622;SDS011;11478;51.094;7.030;2024-02-28T09:59:18;127.78;;;55.78;;
22622;SDS011;11478;51.094;7.030;2024-02-28T10:01:47;126.60;;;55.83;;
22622;SDS011;11478;51.094;7.030;2024-02-28T10:04:20;124.65;;;56.83;;
22622;SDS011;11478;51.094;7.030;2024-02-28T10:06:48;121.28;;;54.08;;
22622;SDS011;11478;51.094;7.030;2024-02-28T10:09:15;114.38;;;53.75;;
22622;SDS011;11478;51.094;7.030;2024-02-28T10:11:41;119.75;;;53.95;;
22622;SDS011;11478;51.094;7.030;2024-02-28T10:14:11;102.55;;;47.78;;
22622;SDS011;11478;51.094;7.030;2024-02-28T10:19:12;85.63;;;45.25;;
22622;SDS011;11478;51.094;7.030;2024-02-28T10:21:50;84.93;;;45.20;;
22622;SDS011;11478;51.094;7.030;2024-02-28T10:24:16;80.20;;;41.97;;
22622;SDS011;11478;51.094;7.030;2024-02-28T10:26:43;81.80;;;43.80;;
22622;SDS011;11478;51.094;7.030;2024-02-28T10:29:20;78.85;;;42.60;;
22622;SDS011;11478;51.094;7.030;2024-02-28T10:31:47;79.28;;;42.67;;
22622;SDS011;11478;51.094;7.030;2024-02-28T10:34:21;70.88;;;39.88;;
22622;SDS011;11478;51.094;7.030;2024-02-28T10:36:48;70.85;;;38.60;;
22622;SDS011;11478;51.094;7.030;2024-02-28T10:39:19;74.32;;;41.22;;
22622;SDS011;11478;51.094;7.030;2024-02-28T10:41:47;73.38;;;39.80;;
22622;SDS011;11478;51.094;7.030;2024-02-28T10:44:23;72.65;;;40.72;;
22622;SDS011;11478;51.094;7.030;2024-02-28T10:46:52;68.40;;;39.35;;
22622;SDS011;11478;51.094;7.030;2024-02-28T10:49:21;69.95;;;39.17;;
22622;SDS011;11478;51.094;7.030;2024-02-28T10:51:48;71.00;;;39.83;;
22622;SDS011;11478;51.094;7.030;2024-02-28T10:54:16;67.10;;;37.03;;
22622;SDS011;11478;51.094;7.030;2024-02-28T10:56:43;66.18;;;37.85;;
22622;SDS011;11478;51.094;7.030;2024-02-28T10:59:10;74.28;;;39.95;;
22622;SDS011;11478;51.094;7.030;2024-02-28T11:01:40;63.92;;;37.13;;
22622;SDS011;11478;51.094;7.030;2024-02-28T11:04:17;69.28;;;39.40;;
22622;SDS011;11478;51.094;7.030;2024-02-28T11:06:50;65.30;;;38.58;;
22622;SDS011;11478;51.094;7.030;2024-02-28T11:09:21;59.28;;;35.55;;
22622;SDS011;11478;51.094;7.030;2024-02-28T11:11:51;58.45;;;35.10;;
22622;SDS011;11478;51.094;7.030;2024-02-28T11:17:10;65.50;;;38.00;;
22622;SDS011;11478;51.094;7.030;2024-02-28T11:19:42;64.50;;;37.40;;
22622;SDS011;11478;51.094;7.030;2024-02-28T11:22:17;58.13;;;34.92;;
22622;SDS011;11478;51.094;7.030;2024-02-28T11:24:47;59.85;;;35.72;;
22622;SDS011;11478;51.094;7.030;2024-02-28T11:27:15;66.43;;;38.83;;
22622;SDS011;11478;51.094;7.030;2024-02-28T11:29:43;61.10;;;34.65;;
22622;SDS011;11478;51.094;7.030;2024-02-28T11:32:12;55.67;;;34.72;;
22622;SDS011;11478;51.094;7.030;2024-02-28T11:34:39;56.97;;;34.80;;
22622;SDS011;11478;51.094;7.030;2024-02-28T11:37:05;58.20;;;35.35;;
22622;SDS011;11478;51.094;7.030;2024-02-28T11:39:41;55.85;;;33.15;;
22622;SDS011;11478;51.094;7.030;2024-02-28T11:42:12;55.45;;;33.40;;
22622;SDS011;11478;51.094;7.030;2024-02-28T11:44:40;57.45;;;33.17;;
22622;SDS011;11478;51.094;7.030;2024-02-28T11:47:08;55.00;;;33.03;;
22622;SDS011;11478;51.094;7.030;2024-02-28T11:49:36;58.47;;;33.60;;
22622;SDS011;11478;51.094;7.030;2024-02-28T11:52:02;49.38;;;30.60;;
22622;SDS011;11478;51.094;7.030;2024-02-28T11:54:29;54.80;;;32.25;;
22622;SDS011;11478;51.094;7.030;2024-02-28T11:56:55;52.95;;;31.90;;
22622;SDS011;11478;51.094;7.030;2024-02-28T11:59:23;54.28;;;32.15;;
22622;SDS011;11478;51.094;7.030;2024-02-28T12:01:48;52.75;;;31.75;;
22622;SDS011;11478;51.094;7.030;2024-02-28T12:04:15;48.22;;;29.85;;
22622;SDS011;11478;51.094;7.030;2024-02-28T12:06:42;55.15;;;31.45;;
22622;SDS011;11478;51.094;7.030;2024-02-28T12:09:13;47.15;;;29.88;;
22622;SDS011;11478;51.094;7.030;2024-02-28T12:11:44;57.10;;;34.15;;
22622;SDS011;11478;51.094;7.030;2024-02-28T12:14:11;51.92;;;31.02;;
22622;SDS011;11478;51.094;7.030;2024-02-28T12:16:38;46.92;;;27.67;;
22622;SDS011;11478;51.094;7.030;2024-02-28T12:19:11;46.20;;;27.27;;
22622;SDS011;11478;51.094;7.030;2024-02-28T12:21:50;53.45;;;29.90;;
22622;SDS011;11478;51.094;7.030;2024-02-28T12:24:16;50.97;;;30.25;;
22622;SDS011;11478;51.094;7.030;2024-02-28T12:26:46;50.40;;;29.33;;
22622;SDS011;11478;51.094;7.030;2024-02-28T12:29:12;46.95;;;28.05;;
22622;SDS011;11478;51.094;7.030;2024-02-28T12:34:17;46.55;;;29.58;;
22622;SDS011;11478;51.094;7.030;2024-02-28T12:36:54;46.75;;;28.92;;
22622;SDS011;11478;51.094;7.030;2024-02-28T12:39:21;44.75;;;28.08;;
22622;SDS011;11478;51.094;7.030;2024-02-28T12:41:48;46.38;;;28.83;;
22622;SDS011;11478;51.094;7.030;2024-02-28T12:44:14;45.13;;;28.17;;
22622;SDS011;11478;51.094;7.030;2024-02-28T12:46:40;44.47;;;26.65;;
22622;SDS011;11478;51.094;7.030;2024-02-28T12:49:07;43.22;;;27.08;;
22622;SDS011;11478;51.094;7.030;2024-02-28T12:54:12;45.03;;;28.13;;
22622;SDS011;11478;51.094;7.030;2024-02-28T12:56:39;46.53;;;27.55;;
22622;SDS011;11478;51.094;7.030;2024-02-28T12:59:11;45.30;;;27.92;;
22622;SDS011;11478;51.094;7.030;2024-02-28T13:01:40;40.78;;;26.23;;
22622;SDS011;11478;51.094;7.030;2024-02-28T13:04:10;44.28;;;26.75;;
22622;SDS011;11478;51.094;7.030;2024-02-28T13:06:42;42.50;;;25.85;;
22622;SDS011;11478;51.094;7.030;2024-02-28T13:09:14;42.42;;;25.40;;
22622;SDS011;11478;51.094;7.030;2024-02-28T13:11:40;39.08;;;24.80;;
22622;SDS011;11478;51.094;7.030;2024-02-28T13:16:48;40.40;;;24.83;;
22622;SDS011;11478;51.094;7.030;2024-02-28T13:19:27;42.83;;;27.15;;
22622;SDS011;11478;51.094;7.030;2024-02-28T13:21:53;38.53;;;23.90;;
22622;SDS011;11478;51.094;7.030;2024-02-28T13:24:22;37.92;;;24.02;;
22622;SDS011;11478;51.094;7.030;2024-02-28T13:26:48;39.17;;;24.27;;
22622;SDS011;11478;51.094;7.030;2024-02-28T13:29:14;37.83;;;23.52;;
22622;SDS011;11478;51.094;7.030;2024-02-28T13:31:43;38.13;;;24.00;;
22622;SDS011;11478;51.094;7.030;2024-02-28T13:34:12;36.15;;;23.27;;
22622;SDS011;11478;51.094;7.030;2024-02-28T13:36:39;36.50;;;23.08;;
22622;SDS011;11478;51.094;7.030;2024-02-28T13:39:16;36.88;;;22.83;;
22622;SDS011;11478;51.094;7.030;2024-02-28T13:41:49;33.75;;;21.83;;
22622;SDS011;11478;51.094;7.030;2024-02-28T13:44:17;30.35;;;19.63;;
22622;SDS011;11478;51.094;7.030;2024-02-28T13:46:46;28.75;;;17.50;;
22622;SDS011;11478;51.094;7.030;2024-02-28T13:49:13;29.45;;;17.80;;
22622;SDS011;11478;51.094;7.030;2024-02-28T13:54:10;27.05;;;17.88;;
22622;SDS011;11478;51.094;7.030;2024-02-28T13:56:43;29.15;;;18.98;;
22622;SDS011;11478;51.094;7.030;2024-02-28T13:59:12;32.60;;;19.97;;
22622;SDS011;11478;51.094;7.030;2024-02-28T14:01:40;29.98;;;19.40;;
22622;SDS011;11478;51.094;7.030;2024-02-28T14:04:06;29.25;;;19.52;;
22622;SDS011;11478;51.094;7.030;2024-02-28T14:06:32;31.52;;;19.60;;
22622;SDS011;11478;51.094;7.030;2024-02-28T14:08:58;28.75;;;18.77;;
22622;SDS011;11478;51.094;7.030;2024-02-28T14:11:28;29.25;;;18.65;;
22622;SDS011;11478;51.094;7.030;2024-02-28T14:13:54;30.90;;;19.00;;
22622;SDS011;11478;51.094;7.030;2024-02-28T14:16:20;28.83;;;17.35;;
22622;SDS011;11478;51.094;7.030;2024-02-28T14:18:46;30.92;;;19.85;;
22622;SDS011;11478;51.094;7.030;2024-02-28T14:24:35;29.00;;;18.17;;
22622;SDS011;11478;51.094;7.030;2024-02-28T14:27:03;36.35;;;21.83;;
22622;SDS011;11478;51.094;7.030;2024-02-28T14:29:30;33.92;;;18.77;;
22622;SDS011;11478;51.094;7.030;2024-02-28T14:31:56;27.55;;;16.75;;
22622;SDS011;11478;51.094;7.030;2024-02-28T14:34:23;26.23;;;15.85;;
22622;SDS011;11478;51.094;7.030;2024-02-28T14:36:49;25.52;;;14.80;;
22622;SDS011;11478;51.094;7.030;2024-02-28T14:39:15;20.42;;;13.55;;
22622;SDS011;11478;51.094;7.030;2024-02-28T14:41:43;24.20;;;14.63;;
22622;SDS011;11478;51.094;7.030;2024-02-28T14:44:16;22.52;;;13.07;;
22622;SDS011;11478;51.094;7.030;2024-02-28T14:46:42;20.77;;;12.65;;
22622;SDS011;11478;51.094;7.030;2024-02-28T14:49:09;21.50;;;13.68;;
22622;SDS011;11478;51.094;7.030;2024-02-28T14:51:38;22.38;;;13.85;;
22622;SDS011;11478;51.094;7.030;2024-02-28T14:54:13;22.77;;;13.90;;
22622;SDS011;11478;51.094;7.030;2024-02-28T14:56:47;24.42;;;14.55;;
22622;SDS011;11478;51.094;7.030;2024-02-28T14:59:13;21.52;;;12.98;;